Time;durP1;ratioP1;P1;durP2;ratioP2;P2;SDS_P1;SDS_P2;PMS_P1;PMS_P2;Temp;Humidity;BMP_temperature;BMP_pressure;BME280_temperature;BME280_humidity;BME280_pressure;Samples;Min_cycle;Max_cycle;Signal;HPM_P1;HPM_P2
2022/10/22 00:00:00;;;;;;;14.75;10.58;;;;;;;3.18;78.08;101943.95;1766113;79;20891;-88
2022/10/22 00:02:26;;;;;;;12.70;8.55;;;;;;;3.14;78.23;101940.98;1762962;80;20871;-90
2022/10/22 00:04:55;;;;;;;17.50;12.65;;;;;;;3.13;78.48;101944.42;1770492;79;20978;-88
2022/10/22 00:07:21;;;;;;;17.37;12.68;;;;;;;3.15;78.88;101940.95;1761203;79;21245;-89
2022/10/22 00:09:49;;;;;;;13.10;10.93;;;;;;;3.16;78.94;101936.20;1776184;79;21026;-89
2022/10/22 00:12:16;;;;;;;21.45;11.33;;;;;;;3.17;79.00;101931.87;1781979;80;21167;-89
2022/10/22 00:14:43;;;;;;;12.53;8.95;;;;;;;3.17;79.01;101936.61;1794050;80;20994;-89
2022/10/22 00:17:09;;;;;;;12.10;9.53;;;;;;;3.16;79.11;101935.32;1782807;79;20915;-89
2022/10/22 00:19:38;;;;;;;12.15;8.93;;;;;;;3.17;79.36;101935.77;1782414;79;21101;-90
2022/10/22 00:22:09;;;;;;;11.43;8.38;;;;;;;3.20;79.21;101927.53;1781554;80;20922;-88
2022/10/22 00:24:36;;;;;;;10.88;8.48;;;;;;;3.22;78.83;101928.35;1761890;78;20966;-89
2022/10/22 00:27:03;;;;;;;11.55;8.43;;;;;;;3.22;78.61;101920.58;1792069;80;20978;-89
2022/10/22 00:29:31;;;;;;;13.93;10.10;;;;;;;3.20;78.50;101924.06;1795418;80;21121;-88
2022/10/22 00:31:58;;;;;;;11.10;9.13;;;;;;;3.17;78.60;101915.88;1772594;80;21326;-89
2022/10/22 00:34:25;;;;;;;12.73;9.70;;;;;;;3.16;78.48;101917.17;1776823;79;21041;-87
2022/10/22 00:36:51;;;;;;;11.60;9.63;;;;;;;3.10;78.29;101909.88;1763448;80;20946;-88
2022/10/22 00:39:21;;;;;;;10.58;8.20;;;;;;;3.05;78.27;101905.63;1782834;80;20955;-87
2022/10/22 00:41:49;;;;;;;10.58;9.00;;;;;;;2.98;78.25;101897.45;1748214;80;20861;-90
2022/10/22 00:45:01;;;;;;;14.20;9.60;;;;;;;2.93;78.43;101896.64;1786013;80;21367;-90
2022/10/22 00:47:47;;;;;;;10.38;9.33;;;;;;;2.87;78.72;101902.30;1760921;80;20897;-88
2022/10/22 00:50:25;;;;;;;12.35;8.90;;;;;;;2.85;78.98;101906.63;1743465;81;20948;-88
2022/10/22 00:52:54;;;;;;;12.78;8.18;;;;;;;2.85;79.10;101897.56;1764311;80;21784;-87
2022/10/22 00:55:21;;;;;;;12.75;8.98;;;;;;;2.86;79.01;101904.89;1734326;81;20968;-88
2022/10/22 00:57:48;;;;;;;10.60;9.05;;;;;;;2.86;79.06;101893.23;1734517;80;21133;-87
2022/10/22 01:00:15;;;;;;;9.10;7.75;;;;;;;2.86;79.02;101892.80;1758249;80;20951;-87
2022/10/22 01:02:43;;;;;;;12.53;9.28;;;;;;;2.84;78.99;101890.64;1698993;82;20957;-88
2022/10/22 01:05:10;;;;;;;11.85;9.83;;;;;;;2.82;78.93;101889.80;1727623;82;20959;-88
2022/10/22 01:07:44;;;;;;;11.33;8.48;;;;;;;2.82;79.01;101892.39;1732211;82;21356;-88
2022/10/22 01:10:43;;;;;;;11.03;9.03;;;;;;;2.83;79.17;101885.05;1725209;82;21111;-88
2022/10/22 01:13:25;;;;;;;10.50;8.10;;;;;;;2.86;79.07;101891.94;1722019;82;20895;-88
2022/10/22 01:16:27;;;;;;;9.95;8.85;;;;;;;2.84;78.94;101885.91;1733554;79;21009;-86
2022/10/22 01:19:02;;;;;;;10.50;7.97;;;;;;;2.75;79.09;101873.03;1731769;79;20938;-85
2022/10/22 01:21:44;;;;;;;9.90;8.15;;;;;;;2.81;79.20;101882.91;1730934;81;20970;-87
2022/10/22 01:24:34;;;;;;;10.40;8.25;;;;;;;2.77;79.45;101879.06;1728671;82;21149;-88
2022/10/22 01:27:12;;;;;;;11.95;8.90;;;;;;;2.72;79.80;101881.69;1731048;82;21344;-89
2022/10/22 01:29:52;;;;;;;10.80;9.33;;;;;;;2.71;79.95;101879.95;1715072;82;20975;-88
2022/10/22 01:32:22;;;;;;;12.25;8.45;;;;;;;2.67;79.95;101876.98;1716788;82;21474;-88
2022/10/22 01:34:56;;;;;;;8.98;7.62;;;;;;;2.62;80.22;101878.31;1729976;82;21009;-87
2022/10/22 01:37:23;;;;;;;11.60;8.43;;;;;;;2.60;80.62;101876.58;1727462;82;21240;-88
2022/10/22 01:39:49;;;;;;;8.75;7.80;;;;;;;2.58;80.99;101888.67;1689973;83;20943;-88
2022/10/22 01:42:16;;;;;;;9.80;7.92;;;;;;;2.60;81.37;101884.34;1724302;82;20955;-89
2022/10/22 01:44:43;;;;;;;11.45;8.63;;;;;;;2.60;81.48;101883.94;1725251;82;20991;-88
2022/10/22 01:47:45;;;;;;;9.83;8.00;;;;;;;2.64;81.79;101883.45;1729231;82;20942;-88
2022/10/22 01:50:32;;;;;;;12.28;8.80;;;;;;;2.69;81.82;101876.51;1729027;82;21265;-86
2022/10/22 01:53:20;;;;;;;13.00;9.60;;;;;;;2.74;81.46;101883.83;1728212;82;20910;-87
2022/10/22 01:56:21;;;;;;;12.65;9.48;;;;;;;2.77;81.28;101882.50;1721819;82;20959;-88
2022/10/22 01:59:41;;;;;;;11.22;8.43;;;;;;;2.79;81.15;101886.39;1711282;82;20865;-87
2022/10/22 02:02:31;;;;;;;10.28;8.78;;;;;;;2.80;81.07;101890.27;1726916;82;21100;-88
2022/10/22 02:05:21;;;;;;;13.60;9.85;;;;;;;2.80;80.66;101882.91;1732519;82;21797;-84
2022/10/22 02:07:53;;;;;;;13.78;9.33;;;;;;;2.77;80.42;101888.98;1729397;82;21073;-87
2022/10/22 02:10:21;;;;;;;10.65;8.00;;;;;;;2.74;80.31;101886.86;1724146;82;21360;-87
2022/10/22 02:12:50;;;;;;;9.43;8.35;;;;;;;2.69;80.45;101889.45;1730079;82;21368;-88
2022/10/22 02:15:18;;;;;;;14.23;9.88;;;;;;;2.67;80.86;101894.67;1719039;82;21459;-88
2022/10/22 02:17:44;;;;;;;12.80;9.30;;;;;;;2.70;81.13;101889.91;1723056;82;21156;-84
2022/10/22 02:20:28;;;;;;;10.82;8.35;;;;;;;2.72;81.24;101889.91;1722457;82;21480;-88
2022/10/22 02:22:55;;;;;;;10.18;8.80;;;;;;;2.73;81.43;101891.61;1728214;82;20915;-87
2022/10/22 02:25:22;;;;;;;10.85;8.38;;;;;;;2.77;81.83;101895.45;1726225;82;21413;-86
2022/10/22 02:27:55;;;;;;;7.87;6.40;;;;;;;2.82;81.86;101891.09;1724503;82;21554;-88
2022/10/22 02:30:22;;;;;;;12.23;8.35;;;;;;;2.86;82.12;101885.47;1724874;82;21852;-89
2022/10/22 02:33:03;;;;;;;9.75;8.05;;;;;;;2.94;82.44;101898.37;1700558;82;21474;-89
2022/10/22 02:35:30;;;;;;;7.78;6.42;;;;;;;3.02;82.58;101895.27;1720790;82;20931;-88
2022/10/22 02:37:57;;;;;;;9.75;6.97;;;;;;;3.12;82.58;101893.03;1695037;83;20954;-88
2022/10/22 02:40:24;;;;;;;8.83;6.60;;;;;;;3.22;82.62;101889.47;1722724;82;21010;-88
2022/10/22 02:42:50;;;;;;;10.32;6.67;;;;;;;3.33;82.45;101890.67;1704306;82;21150;-87
2022/10/22 02:45:18;;;;;;;10.32;6.67;;;;;;;3.39;82.24;101894.52;1727192;82;21016;-89
2022/10/22 02:47:44;;;;;;;10.68;6.92;;;;;;;3.47;81.99;101899.64;1726951;82;21471;-88
2022/10/22 02:50:12;;;;;;;9.40;6.55;;;;;;;3.50;81.66;101905.64;1728273;82;21472;-88
2022/10/22 02:52:40;;;;;;;10.65;6.97;;;;;;;3.53;81.33;101897.84;1723131;82;21003;-87
2022/10/22 02:55:08;;;;;;;13.62;7.95;;;;;;;3.53;81.04;101899.14;1718351;82;21157;-89
2022/10/22 02:57:34;;;;;;;12.98;7.70;;;;;;;3.52;80.97;101910.38;1724487;82;20995;-88
2022/10/22 03:00:01;;;;;;;9.55;7.37;;;;;;;3.53;80.99;101904.74;1727378;82;20910;-89
2022/10/22 03:02:27;;;;;;;9.48;6.90;;;;;;;3.53;80.90;101908.22;1718794;82;21385;-87
2022/10/22 03:04:54;;;;;;;9.08;6.72;;;;;;;3.54;80.94;101915.55;1721627;82;20963;-88
2022/10/22 03:07:21;;;;;;;13.13;7.50;;;;;;;3.57;80.81;101919.84;1718234;83;21315;-88
2022/10/22 03:09:49;;;;;;;8.93;7.17;;;;;;;3.59;80.79;101919.40;1724515;82;20994;-89
2022/10/22 03:12:17;;;;;;;9.38;7.00;;;;;;;3.64;80.73;101924.94;1723489;81;20964;-89
2022/10/22 03:14:45;;;;;;;8.83;7.20;;;;;;;3.69;80.59;101917.11;1721937;82;21013;-86
2022/10/22 03:17:13;;;;;;;13.38;7.50;;;;;;;3.72;80.34;101923.58;1707389;82;20961;-85
2022/10/22 03:19:41;;;;;;;10.08;8.18;;;;;;;3.74;80.18;101916.20;1717673;83;21214;-84
2022/10/22 03:22:13;;;;;;;12.15;8.05;;;;;;;3.76;80.00;101917.91;1716603;82;21447;-89
2022/10/22 03:24:42;;;;;;;11.90;8.08;;;;;;;3.76;79.71;101917.49;1692411;83;20935;-89
2022/10/22 03:27:08;;;;;;;13.28;9.93;;;;;;;3.72;79.49;101920.55;1700797;83;21064;-89
2022/10/22 03:29:37;;;;;;;14.70;9.90;;;;;;;3.67;79.37;101917.59;1717478;82;21085;-87
2022/10/22 03:32:05;;;;;;;12.25;8.43;;;;;;;3.62;79.46;101915.47;1723095;82;20855;-88
2022/10/22 03:34:32;;;;;;;11.33;9.40;;;;;;;3.60;79.54;101919.80;1722362;82;21015;-86
2022/10/22 03:37:00;;;;;;;18.02;11.90;;;;;;;3.59;79.59;101924.58;1715526;83;21532;-85
2022/10/22 03:39:28;;;;;;;13.10;9.85;;;;;;;3.58;79.65;101922.84;1725792;82;20895;-87
2022/10/22 03:41:55;;;;;;;10.72;8.10;;;;;;;3.58;79.62;101915.95;1717768;83;20908;-89
2022/10/22 03:44:22;;;;;;;12.47;8.73;;;;;;;3.59;79.69;101916.36;1717706;82;21170;-88
2022/10/22 03:46:49;;;;;;;16.55;9.93;;;;;;;3.62;79.79;101917.61;1700910;82;20965;-90
2022/10/22 03:49:16;;;;;;;14.07;9.10;;;;;;;3.66;79.79;101919.75;1721492;82;20963;-88
2022/10/22 03:51:45;;;;;;;14.38;9.15;;;;;;;3.69;79.73;101921.00;1704284;82;21008;-88
2022/10/22 03:54:11;;;;;;;12.53;9.68;;;;;;;3.71;79.54;101918.84;1715753;82;21005;-88
2022/10/22 03:56:38;;;;;;;12.70;9.60;;;;;;;3.72;79.38;101918.39;1725621;82;21285;-89
2022/10/22 03:59:05;;;;;;;16.50;10.38;;;;;;;3.70;79.18;101913.66;1714455;82;20954;-87
2022/10/22 04:01:32;;;;;;;15.53;9.93;;;;;;;3.69;79.07;101915.81;1727206;82;20871;-88
2022/10/22 04:07:08;;;;;;;15.48;9.90;;;;;;;3.61;79.18;101905.53;1740362;78;21191;-85
2022/10/22 04:09:36;;;;;;;17.60;10.40;;;;;;;3.60;79.36;101913.32;1726702;82;20947;-84
2022/10/22 04:12:08;;;;;;;17.35;11.33;;;;;;;3.59;79.43;101911.61;1719860;82;20883;-85
2022/10/22 04:14:33;;;;;;;15.05;10.45;;;;;;;3.59;79.55;101903.39;1724442;82;20880;-85
2022/10/22 04:17:00;;;;;;;18.80;10.58;;;;;;;3.61;79.57;101907.28;1723891;82;20975;-84
2022/10/22 04:19:28;;;;;;;16.30;10.03;;;;;;;3.64;79.71;101911.97;1715106;82;21077;-85
2022/10/22 04:21:58;;;;;;;16.85;11.48;;;;;;;3.67;79.75;101901.58;1724298;82;21113;-86
2022/10/22 04:24:25;;;;;;;18.23;10.23;;;;;;;3.74;79.75;101897.19;1722710;83;20994;-84
2022/10/22 04:26:53;;;;;;;20.48;12.40;;;;;;;3.82;79.89;101904.42;1723512;82;20963;-85
2022/10/22 04:29:20;;;;;;;21.23;12.65;;;;;;;3.92;79.94;101903.45;1724457;82;21496;-85
2022/10/22 04:31:46;;;;;;;19.50;11.57;;;;;;;4.03;79.95;101895.55;1720648;83;20884;-85
2022/10/22 04:34:13;;;;;;;19.67;11.90;;;;;;;4.12;79.97;101903.66;1724022;82;21420;-86
2022/10/22 04:36:40;;;;;;;22.10;13.38;;;;;;;4.22;79.85;101905.25;1719986;82;21571;-86
2022/10/22 04:39:07;;;;;;;17.32;11.08;;;;;;;4.31;79.65;101904.27;1724471;82;20918;-85
2022/10/22 04:41:36;;;;;;;17.07;11.25;;;;;;;4.38;79.47;101913.72;1723571;83;21761;-84
2022/10/22 04:44:03;;;;;;;16.07;11.68;;;;;;;4.44;79.39;101913.61;1718206;83;21070;-85
2022/10/22 04:46:32;;;;;;;19.48;13.18;;;;;;;4.52;79.35;101925.22;1721982;83;20999;-87
2022/10/22 04:48:58;;;;;;;14.03;10.28;;;;;;;4.58;79.31;101921.24;1723443;82;20994;-83
2022/10/22 04:51:25;;;;;;;14.70;11.63;;;;;;;4.62;79.20;101925.94;1723558;82;20967;-86
2022/10/22 04:53:53;;;;;;;18.75;11.80;;;;;;;4.65;79.26;101930.66;1723702;83;20903;-85
2022/10/22 04:56:23;;;;;;;16.05;10.68;;;;;;;4.70;79.38;101935.78;1724388;81;20998;-84
2022/10/22 04:59:02;;;;;;;25.48;15.72;;;;;;;4.77;79.37;101941.30;1728305;82;21140;-84
2022/10/22 05:01:31;;;;;;;22.58;14.50;;;;;;;4.86;79.21;101942.91;1717687;82;21014;-86
2022/10/22 05:04:00;;;;;;;16.25;10.53;;;;;;;4.90;79.02;101938.95;1720069;82;21566;-84
2022/10/22 05:06:29;;;;;;;16.45;10.15;;;;;;;4.96;78.86;101942.76;1726647;82;20891;-84
2022/10/22 05:08:58;;;;;;;14.68;10.28;;;;;;;5.03;78.73;101942.22;1724251;82;20970;-84
2022/10/22 05:11:35;;;;;;;22.80;15.28;;;;;;;5.09;78.64;101939.95;1663052;84;20980;-86
2022/10/22 05:14:05;;;;;;;24.85;16.48;;;;;;;5.13;78.45;101938.58;1724075;82;20951;-86
2022/10/22 05:16:33;;;;;;;21.85;14.95;;;;;;;5.18;78.30;101944.58;1721951;83;21002;-86
2022/10/22 05:19:01;;;;;;;23.38;15.75;;;;;;;5.24;78.16;101942.30;1723404;83;21616;-86
2022/10/22 05:21:29;;;;;;;22.20;16.37;;;;;;;5.29;77.99;101949.61;1718150;82;21082;-86
2022/10/22 05:23:58;;;;;;;28.45;19.15;;;;;;;5.32;77.85;101948.25;1721857;83;21301;-85
2022/10/22 05:26:25;;;;;;;20.50;13.20;;;;;;;5.36;77.83;101943.87;1724103;82;20967;-84
2022/10/22 05:28:53;;;;;;;17.23;13.22;;;;;;;5.39;77.88;101950.30;1724262;82;21030;-86
2022/10/22 05:31:19;;;;;;;16.52;12.00;;;;;;;5.44;78.00;101948.47;1724392;82;21469;-86
2022/10/22 05:33:46;;;;;;;13.20;9.90;;;;;;;5.50;78.09;101946.22;1725048;82;20939;-84
2022/10/22 05:36:16;;;;;;;12.50;9.85;;;;;;;5.60;78.17;101953.84;1720866;82;21248;-85
2022/10/22 05:38:43;;;;;;;12.05;9.20;;;;;;;5.71;78.05;101948.42;1725103;81;20963;-84
2022/10/22 05:41:16;;;;;;;14.20;10.43;;;;;;;5.81;77.96;101960.84;1726501;82;21003;-84
2022/10/22 05:46:54;;;;;;;16.57;10.63;;;;;;;6.18;77.78;101953.62;1715824;79;20937;-84
2022/10/22 05:49:21;;;;;;;16.70;11.15;;;;;;;6.50;77.11;101952.13;1671078;83;22000;-86
2022/10/22 05:51:49;;;;;;;16.80;12.82;;;;;;;6.73;76.49;101958.13;1677835;83;21532;-85
2022/10/22 05:54:18;;;;;;;15.83;12.37;;;;;;;7.00;75.97;101962.73;1672157;83;21118;-87
2022/10/22 05:56:46;;;;;;;17.85;13.15;;;;;;;7.40;75.42;101956.97;1681568;84;21057;-85
2022/10/22 05:59:13;;;;;;;20.05;13.15;;;;;;;7.86;74.37;101958.38;1665013;84;21516;-85
2022/10/22 06:01:42;;;;;;;21.12;15.53;;;;;;;8.36;73.27;101956.54;1672495;83;21169;-85
2022/10/22 06:04:11;;;;;;;27.90;18.95;;;;;;;8.91;71.88;101958.40;1664171;84;20877;-84
2022/10/22 06:06:49;;;;;;;18.15;14.35;;;;;;;9.38;70.03;101947.72;1669319;83;20992;-84
2022/10/22 06:09:31;;;;;;;15.05;11.30;;;;;;;9.78;68.68;101951.13;1667519;84;21010;-84
2022/10/22 06:11:58;;;;;;;15.60;10.35;;;;;;;10.24;67.29;101946.84;1675534;84;20964;-86
2022/10/22 06:14:25;;;;;;;11.73;9.93;;;;;;;10.73;66.07;101937.12;1677859;83;21134;-87
2022/10/22 06:16:52;;;;;;;16.40;8.85;;;;;;;11.07;64.49;101944.11;1658608;83;21041;-85
2022/10/22 06:19:25;;;;;;;8.35;7.20;;;;;;;11.16;63.20;101941.98;1687760;83;20928;-86
2022/10/22 06:21:52;;;;;;;11.00;8.70;;;;;;;11.10;62.37;101936.97;1660992;83;20892;-84
2022/10/22 06:24:20;;;;;;;9.40;7.40;;;;;;;11.00;62.34;101935.63;1647851;85;21001;-83
2022/10/22 06:26:50;;;;;;;9.55;7.28;;;;;;;10.88;62.40;101932.20;1664858;84;21392;-85
2022/10/22 06:29:17;;;;;;;9.70;7.90;;;;;;;10.74;62.64;101934.06;1676882;83;20880;-84
2022/10/22 06:31:44;;;;;;;8.75;7.60;;;;;;;10.62;63.06;101934.07;1669668;84;21043;-86
2022/10/22 06:34:11;;;;;;;8.45;7.30;;;;;;;10.55;63.50;101936.54;1655827;85;21597;-84
2022/10/22 06:36:37;;;;;;;10.45;7.22;;;;;;;10.52;64.06;101937.98;1664063;83;20982;-83
2022/10/22 06:39:04;;;;;;;9.15;7.55;;;;;;;10.51;64.22;101937.56;1677436;84;21120;-84
2022/10/22 06:41:31;;;;;;;11.18;8.33;;;;;;;10.50;64.38;101936.72;1683937;82;21465;-85
2022/10/22 06:43:58;;;;;;;8.43;6.30;;;;;;;10.51;64.58;101942.81;1680143;83;21460;-84
2022/10/22 06:46:25;;;;;;;6.83;5.22;;;;;;;10.53;64.56;101939.67;1670461;83;21515;-84
2022/10/22 06:48:59;;;;;;;6.67;4.17;;;;;;;10.53;64.22;101936.59;1655599;86;21020;-85
2022/10/22 06:51:26;;;;;;;5.85;4.30;;;;;;;10.52;63.97;101941.91;1667451;83;21521;-83
2022/10/22 06:53:54;;;;;;;4.42;4.03;;;;;;;10.52;63.79;101940.61;1673357;83;21157;-84
2022/10/22 06:56:22;;;;;;;8.78;4.75;;;;;;;10.50;63.79;101935.88;1649629;85;21643;-86
2022/10/22 06:58:50;;;;;;;5.50;4.50;;;;;;;10.49;63.56;101944.20;1672025;84;21007;-86
2022/10/22 07:01:19;;;;;;;8.75;7.85;;;;;;;10.44;63.33;101939.57;1660824;86;20949;-84
2022/10/22 07:03:46;;;;;;;15.55;11.63;;;;;;;10.39;63.35;101941.98;1675213;84;21211;-85
2022/10/22 07:06:14;;;;;;;9.33;8.13;;;;;;;10.34;63.45;101943.48;1662590;84;21038;-84
2022/10/22 07:08:41;;;;;;;9.73;6.62;;;;;;;10.30;63.44;101945.81;1640723;85;20976;-84
2022/10/22 07:11:15;;;;;;;5.72;4.65;;;;;;;10.22;63.38;101943.42;1663578;85;20968;-86
2022/10/22 07:13:42;;;;;;;5.00;4.47;;;;;;;10.14;63.54;101955.98;1655555;86;21016;-86
2022/10/22 07:16:09;;;;;;;5.47;4.72;;;;;;;10.11;63.76;101956.92;1685306;83;21757;-86
2022/10/22 07:18:36;;;;;;;6.35;4.65;;;;;;;10.09;63.86;101953.96;1678158;83;20959;-87
2022/10/22 07:21:03;;;;;;;14.15;10.93;;;;;;;10.08;64.15;101949.64;1681755;84;20975;-84
2022/10/22 07:23:30;;;;;;;24.20;17.55;;;;;;;10.08;64.26;101947.02;1676627;83;21010;-85
2022/10/22 07:25:58;;;;;;;13.80;9.68;;;;;;;10.09;64.28;101946.09;1685228;83;21428;-85
2022/10/22 07:28:24;;;;;;;17.40;12.50;;;;;;;10.09;64.16;101948.72;1673272;84;21208;-85
2022/10/22 07:30:51;;;;;;;10.13;6.45;;;;;;;10.06;64.13;101943.60;1665851;82;20991;-85
2022/10/22 07:33:17;;;;;;;11.43;6.28;;;;;;;10.03;64.17;101931.93;1675664;82;20904;-87
2022/10/22 07:35:47;;;;;;;7.78;6.03;;;;;;;9.98;64.24;101930.76;1656385;85;21047;-86
2022/10/22 07:38:13;;;;;;;8.10;6.12;;;;;;;9.99;64.53;101927.70;1678917;83;21073;-88
2022/10/22 07:40:40;;;;;;;7.92;5.10;;;;;;;10.04;64.51;101929.70;1681544;83;21855;-85
2022/10/22 07:43:07;;;;;;;7.55;6.45;;;;;;;10.07;64.57;101929.14;1674159;84;20919;-88
2022/10/22 07:45:33;;;;;;;6.83;4.90;;;;;;;10.12;64.71;101929.81;1684435;83;20914;-85
2022/10/22 07:48:01;;;;;;;8.83;5.42;;;;;;;10.15;64.59;101931.46;1674955;84;20904;-85
2022/10/22 07:50:28;;;;;;;7.42;5.00;;;;;;;10.17;64.61;101929.64;1676016;83;20884;-85
2022/10/22 07:52:55;;;;;;;7.70;6.58;;;;;;;10.22;64.64;101921.60;1671967;84;21861;-87
2022/10/22 07:55:21;;;;;;;8.63;4.70;;;;;;;10.31;64.92;101931.31;1678084;83;20916;-86
2022/10/22 07:57:48;;;;;;;5.42;4.67;;;;;;;10.47;65.20;101926.80;1685860;84;21525;-84
2022/10/22 08:00:15;;;;;;;7.05;4.53;;;;;;;10.90;65.53;101927.74;1648778;85;21008;-84
2022/10/22 08:02:43;;;;;;;5.90;3.85;;;;;;;11.60;65.40;101916.92;1668281;83;21117;-83
2022/10/22 08:05:15;;;;;;;6.15;4.45;;;;;;;12.41;63.09;101904.99;1655795;85;21015;-84
2022/10/22 08:07:42;;;;;;;4.28;3.87;;;;;;;13.22;60.94;101897.52;1655935;85;21510;-85
2022/10/22 08:10:10;;;;;;;4.62;3.55;;;;;;;13.79;58.49;101897.27;1674709;83;20924;-85
2022/10/22 10:58:54;;;;;;;5.20;2.70;;;;;;;14.98;50.80;101769.58;1771016;79;20988;-88
2022/10/22 11:01:30;;;;;;;2.85;2.00;;;;;;;14.98;50.80;101769.58;1721541;82;20842;-87
2022/10/22 11:04:40;;;;;;;4.85;2.37;;;;;;;14.76;50.96;101760.77;1731628;82;21031;-89
2022/10/22 11:07:12;;;;;;;3.95;3.20;;;;;;;14.76;50.96;101760.77;1758342;80;21002;-89
2022/10/22 11:09:47;;;;;;;3.77;2.75;;;;;;;14.56;51.01;101763.73;1763145;80;21144;-86
2022/10/22 11:12:22;;;;;;;5.85;3.10;;;;;;;14.39;51.60;101760.27;1770280;80;20861;-87
2022/10/22 11:15:23;;;;;;;4.70;3.45;;;;;;;14.25;51.77;101762.83;1770066;80;21050;-88
2022/10/22 11:17:50;;;;;;;4.28;2.50;;;;;;;14.25;51.77;101762.83;1752162;80;20958;-87
2022/10/22 11:20:53;;;;;;;6.03;4.78;;;;;;;14.36;52.00;101751.22;1711517;81;20884;-86
2022/10/22 15:31:53;;;;;;;15.30;10.30;;;;;;;10.57;65.35;101592.42;1675095;83;21003;-89
2022/10/22 15:34:26;;;;;;;13.55;9.68;;;;;;;10.56;65.37;101594.62;1678949;84;20924;-87
2022/10/22 15:36:56;;;;;;;16.02;11.00;;;;;;;10.54;65.23;101588.16;1687262;82;21678;-88
2022/10/22 15:39:23;;;;;;;16.23;10.18;;;;;;;10.54;65.26;101584.70;1689651;82;21104;-88
2022/10/22 15:41:50;;;;;;;14.95;10.93;;;;;;;10.54;65.25;101587.32;1682998;82;20904;-88
2022/10/22 15:44:19;;;;;;;19.62;12.45;;;;;;;10.54;65.20;101585.54;1696830;83;21022;-87
2022/10/22 15:46:46;;;;;;;15.45;11.05;;;;;;;10.53;65.17;101588.22;1696173;83;20893;-88
2022/10/22 15:49:13;;;;;;;13.95;9.03;;;;;;;10.53;65.15;101582.51;1690636;82;20951;-88
2022/10/22 15:51:39;;;;;;;15.05;9.75;;;;;;;10.51;65.12;101580.41;1671785;84;21129;-88
2022/10/22 15:54:10;;;;;;;37.60;24.50;;;;;;;10.49;65.20;101583.59;1670050;84;20952;-86
2022/10/22 15:56:37;;;;;;;13.05;9.13;;;;;;;10.48;65.29;101586.27;1695845;83;20931;-87
2022/10/22 15:59:03;;;;;;;13.38;9.40;;;;;;;10.45;65.33;101582.45;1722151;82;20944;-87
2022/10/22 16:01:31;;;;;;;12.45;9.18;;;;;;;10.41;65.43;101580.44;1721428;82;20975;-88
2022/10/22 16:03:58;;;;;;;13.80;8.85;;;;;;;10.36;65.45;101570.16;1703372;81;21277;-88
2022/10/22 16:06:26;;;;;;;13.40;9.40;;;;;;;10.31;65.47;101573.89;1693346;81;21014;-87
2022/10/22 16:08:58;;;;;;;14.35;9.75;;;;;;;10.27;65.40;101577.09;1704076;81;21042;-88
2022/10/22 16:11:26;;;;;;;12.28;9.18;;;;;;;10.21;65.21;101568.63;1648196;84;21002;-86
2022/10/22 16:13:58;;;;;;;12.33;8.18;;;;;;;10.14;65.24;101566.27;1680749;83;20979;-88
2022/10/22 16:16:27;;;;;;;15.18;8.18;;;;;;;10.11;65.20;101565.07;1687780;85;21246;-87
2022/10/22 16:18:57;;;;;;;13.05;7.42;;;;;;;10.08;65.23;101572.23;1678006;83;21018;-90
2022/10/22 16:21:30;;;;;;;10.85;7.50;;;;;;;10.06;65.07;101573.59;1686773;84;21008;-88
2022/10/22 16:24:00;;;;;;;12.80;7.60;;;;;;;10.05;65.03;101572.34;1677008;83;20928;-89
2022/10/22 16:26:27;;;;;;;14.98;7.95;;;;;;;10.04;64.99;101573.27;1712587;83;21000;-88
2022/10/22 16:28:53;;;;;;;10.93;7.65;;;;;;;10.03;65.09;101567.19;1706582;83;21421;-87
2022/10/22 16:31:20;;;;;;;12.58;9.23;;;;;;;10.05;64.94;101569.29;1703228;83;20955;-88
2022/10/22 16:33:48;;;;;;;20.30;11.28;;;;;;;10.07;64.88;101571.83;1705153;83;20964;-90
2022/10/22 16:36:17;;;;;;;16.40;10.25;;;;;;;10.07;64.77;101568.77;1707942;83;20959;-89
2022/10/22 16:38:46;;;;;;;21.23;12.60;;;;;;;10.08;64.53;101567.84;1707155;83;20915;-89
2022/10/22 16:41:24;;;;;;;17.45;10.00;;;;;;;10.07;64.52;101575.32;1706775;83;21460;-88
2022/10/22 16:43:53;;;;;;;16.25;9.48;;;;;;;10.06;64.40;101579.30;1708345;83;20997;-89
2022/10/22 16:46:21;;;;;;;9.68;7.08;;;;;;;10.01;64.39;101580.81;1696106;83;20900;-90
2022/10/22 16:48:51;;;;;;;12.03;7.50;;;;;;;9.99;64.48;101579.18;1643683;84;21095;-89
2022/10/22 16:51:21;;;;;;;11.90;8.33;;;;;;;9.96;64.42;101570.53;1698633;83;20983;-91
2022/10/22 16:53:51;;;;;;;14.45;9.08;;;;;;;9.95;64.53;101565.34;1697615;83;21287;-88
2022/10/22 16:56:19;;;;;;;12.43;8.35;;;;;;;9.94;64.58;101561.88;1696168;83;20904;-90
2022/10/22 16:58:53;;;;;;;10.45;7.15;;;;;;;9.94;64.65;101564.97;1695822;83;21417;-87
2022/10/22 17:01:25;;;;;;;11.83;7.37;;;;;;;9.92;64.68;101560.25;1700067;83;21536;-89
2022/10/22 17:03:53;;;;;;;11.78;7.42;;;;;;;9.89;64.72;101553.38;1709453;83;21767;-89
2022/10/22 17:06:21;;;;;;;13.05;7.03;;;;;;;9.86;64.77;101550.86;1679043;82;21172;-88
2022/10/22 17:08:49;;;;;;;11.10;6.10;;;;;;;9.85;64.83;101547.86;1666909;84;20967;-90
2022/10/22 17:11:20;;;;;;;8.20;5.70;;;;;;;9.87;64.78;101545.16;1650371;84;21497;-89
2022/10/22 17:13:48;;;;;;;10.30;6.78;;;;;;;9.86;64.87;101542.16;1697449;83;20914;-90
2022/10/22 17:16:18;;;;;;;9.13;6.97;;;;;;;9.88;64.79;101535.09;1703674;83;20908;-89
2022/10/22 17:18:47;;;;;;;9.48;6.45;;;;;;;9.89;64.75;101534.16;1713213;83;21832;-88
2022/10/22 17:21:16;;;;;;;9.70;5.87;;;;;;;9.89;64.70;101530.22;1678829;83;21496;-89
2022/10/22 17:23:45;;;;;;;9.05;6.50;;;;;;;9.87;64.62;101523.77;1679275;83;20908;-87
2022/10/22 17:26:16;;;;;;;10.93;6.92;;;;;;;9.86;64.68;101510.72;1660466;84;20945;-87
2022/10/22 17:28:44;;;;;;;13.75;7.28;;;;;;;9.85;64.71;101505.06;1666542;83;21067;-87
2022/10/22 17:31:27;;;;;;;12.93;7.87;;;;;;;9.84;64.69;101499.45;1638445;84;21214;-87
2022/10/22 17:33:58;;;;;;;11.57;7.67;;;;;;;9.84;64.75;101504.69;1649596;84;21272;-86
2022/10/22 17:36:25;;;;;;;11.70;7.35;;;;;;;9.81;64.83;101501.75;1638157;86;21072;-86
2022/10/22 17:38:55;;;;;;;10.70;6.97;;;;;;;9.78;64.87;101502.33;1643867;85;21548;-88
2022/10/22 17:41:27;;;;;;;10.45;6.30;;;;;;;9.75;64.96;101512.02;1679780;83;21042;-89
2022/10/22 17:43:56;;;;;;;9.10;6.85;;;;;;;9.75;65.04;101519.88;1690484;85;21911;-87
2022/10/22 17:46:24;;;;;;;9.63;7.67;;;;;;;9.74;65.13;101519.49;1688617;83;21007;-86
2022/10/22 17:48:58;;;;;;;10.85;6.85;;;;;;;9.74;65.21;101514.72;1679778;84;20987;-89
2022/10/22 17:51:26;;;;;;;12.43;7.75;;;;;;;9.75;65.32;101508.08;1681037;84;20916;-87
2022/10/22 17:53:52;;;;;;;12.53;7.33;;;;;;;9.74;65.47;101500.31;1684976;83;21027;-87
2022/10/22 17:56:27;;;;;;;13.90;8.60;;;;;;;9.74;65.52;101502.47;1680726;85;21337;-89
2022/10/22 17:58:54;;;;;;;12.00;7.87;;;;;;;9.74;65.54;101503.78;1676245;83;21544;-86
2022/10/22 18:01:28;;;;;;;16.02;7.92;;;;;;;9.72;65.66;101500.36;1669604;85;21062;-86
2022/10/22 18:04:05;;;;;;;14.80;8.75;;;;;;;9.71;65.74;101506.50;1683447;85;20932;-87
2022/10/22 18:06:33;;;;;;;12.28;7.83;;;;;;;9.71;65.91;101501.73;1652951;84;21531;-87
2022/10/22 18:09:08;;;;;;;12.13;8.03;;;;;;;9.67;66.12;101499.72;1679147;84;21300;-86
2022/10/22 18:11:38;;;;;;;11.48;7.22;;;;;;;9.65;66.38;101492.38;1676315;83;21038;-87
2022/10/22 18:14:07;;;;;;;13.75;7.60;;;;;;;9.62;66.59;101495.58;1686794;82;21397;-89
2022/10/22 18:16:34;;;;;;;12.20;8.23;;;;;;;9.62;66.83;101486.41;1683446;83;20980;-88
2022/10/22 18:19:02;;;;;;;11.63;7.97;;;;;;;9.62;67.10;101484.63;1676260;83;20869;-89
2022/10/22 18:21:30;;;;;;;12.70;7.67;;;;;;;9.63;67.30;101476.34;1684447;83;21184;-90
2022/10/22 18:23:57;;;;;;;10.45;7.75;;;;;;;9.64;67.47;101467.55;1679384;84;20959;-87
2022/10/22 18:26:26;;;;;;;9.53;7.47;;;;;;;9.66;67.58;101467.87;1676124;82;21452;-87
2022/10/22 18:28:54;;;;;;;13.83;9.15;;;;;;;9.70;67.68;101468.61;1675354;85;21015;-86
2022/10/22 18:31:22;;;;;;;11.57;8.10;;;;;;;9.71;67.79;101468.52;1677669;83;20923;-88
2022/10/22 18:33:49;;;;;;;11.65;7.75;;;;;;;9.70;68.00;101464.22;1678287;83;21152;-87
2022/10/22 18:36:20;;;;;;;13.85;8.78;;;;;;;9.68;68.06;101463.43;1687901;83;20982;-86